Time;durP1;ratioP1;P1;durP2;ratioP2;P2;SDS_P1;SDS_P2;PMS_P1;PMS_P2;Temp;Humidity;BMP_temperature;BMP_pressure;BME280_temperature;BME280_humidity;BME280_pressure;Samples;Min_cycle;Max_cycle;Signal;HPM_P1;HPM_P2
2023/10/15 00:00:13;;;;;;;4.65;0.93;;;8.40;99.90;;;;;;5043625;28;20033;-73
2023/10/15 00:02:41;;;;;;;3.75;0.90;;;8.30;99.90;;;;;;5057597;28;20504;-73
2023/10/15 00:05:08;;;;;;;3.85;0.80;;;8.20;99.90;;;;;;5057010;28;20119;-73
2023/10/15 00:07:34;;;;;;;7.22;1.05;;;8.20;99.90;;;;;;5057997;28;20473;-74
2023/10/15 00:10:00;;;;;;;6.50;1.02;;;8.00;99.90;;;;;;5073569;28;20083;-73
2023/10/15 00:12:25;;;;;;;4.70;0.90;;;8.10;99.90;;;;;;5053820;28;20094;-73
2023/10/15 00:14:51;;;;;;;3.78;1.02;;;8.20;99.90;;;;;;5074090;28;20040;-73
2023/10/15 00:17:17;;;;;;;7.35;0.93;;;8.30;99.90;;;;;;5057789;28;20068;-73
2023/10/15 00:19:42;;;;;;;5.30;0.85;;;8.20;99.90;;;;;;5074360;28;20079;-73
2023/10/15 00:22:08;;;;;;;6.72;1.02;;;8.10;99.90;;;;;;5069445;28;20040;-73
2023/10/15 00:24:33;;;;;;;4.72;0.90;;;8.10;99.90;;;;;;5056247;28;20500;-73
2023/10/15 00:26:59;;;;;;;5.18;1.20;;;8.20;99.90;;;;;;5073550;28;20052;-73
2023/10/15 00:29:25;;;;;;;4.85;1.13;;;8.20;99.90;;;;;;5057595;28;20123;-73
2023/10/15 00:31:51;;;;;;;3.33;0.80;;;8.20;99.90;;;;;;5052927;28;20493;-73
2023/10/15 00:34:17;;;;;;;5.80;0.90;;;8.20;99.90;;;;;;5052467;28;20045;-73
2023/10/15 00:36:43;;;;;;;5.70;0.93;;;8.30;99.90;;;;;;5053940;28;20041;-73
2023/10/15 00:39:19;;;;;;;5.50;1.00;;;8.40;99.90;;;;;;5037448;28;20037;-73
2023/10/15 00:41:49;;;;;;;6.32;1.27;;;8.40;99.90;;;;;;5053980;28;20089;-73
2023/10/15 00:44:16;;;;;;;4.35;0.90;;;8.50;99.90;;;;;;5059121;28;20028;-73
2023/10/15 00:46:45;;;;;;;7.43;1.15;;;8.40;99.90;;;;;;5057280;28;20032;-73
2023/10/15 00:49:14;;;;;;;5.82;1.63;;;8.30;99.90;;;;;;5073960;28;20047;-74
2023/10/15 00:51:41;;;;;;;6.80;1.58;;;8.40;99.90;;;;;;5072531;28;20093;-73
2023/10/15 00:54:14;;;;;;;4.35;1.00;;;8.40;99.90;;;;;;5070820;28;20492;-73
2023/10/15 00:56:44;;;;;;;6.30;0.90;;;8.50;99.90;;;;;;5055580;28;20052;-73
2023/10/15 01:01:54;;;;;;;3.70;0.85;;;8.60;99.90;;;;;;5071939;28;20393;-73
2023/10/15 01:04:32;;;;;;;6.03;1.30;;;8.60;99.90;;;;;;5062132;28;20037;-74
2023/10/15 01:07:04;;;;;;;3.28;0.80;;;8.60;99.90;;;;;;5068685;28;20497;-73
2023/10/15 01:09:30;;;;;;;3.75;0.85;;;8.60;99.90;;;;;;5054945;28;20079;-73
2023/10/15 01:11:57;;;;;;;5.72;0.90;;;8.60;99.90;;;;;;5065984;28;20083;-73
2023/10/15 01:14:31;;;;;;;4.38;0.95;;;8.40;99.90;;;;;;5054988;28;20037;-72
2023/10/15 01:16:59;;;;;;;4.93;1.10;;;8.30;99.90;;;;;;5063416;28;20132;-73
2023/10/15 01:19:33;;;;;;;4.80;0.80;;;8.30;99.90;;;;;;5077350;28;20122;-73
2023/10/15 01:22:02;;;;;;;3.53;0.80;;;8.20;99.90;;;;;;5045924;28;20539;-73
2023/10/15 01:24:32;;;;;;;3.55;0.75;;;8.20;99.90;;;;;;5054330;28;20098;-73
2023/10/15 01:27:11;;;;;;;2.88;0.88;;;8.20;99.90;;;;;;5055337;28;20131;-73
2023/10/15 01:29:41;;;;;;;3.13;0.60;;;8.30;99.90;;;;;;5054587;28;20041;-73
2023/10/15 01:32:15;;;;;;;4.35;0.90;;;8.30;99.90;;;;;;5071855;28;20040;-73
2023/10/15 01:34:44;;;;;;;2.65;0.55;;;8.30;99.90;;;;;;5051287;28;20487;-73
2023/10/15 01:39:47;;;;;;;3.58;0.73;;;8.40;99.90;;;;;;5071857;28;20075;-73
2023/10/15 01:42:40;;;;;;;4.53;0.88;;;8.40;99.90;;;;;;5071757;28;20039;-73
2023/10/15 01:47:45;;;;;;;4.78;0.85;;;8.40;99.90;;;;;;5052854;28;20110;-73
2023/10/15 01:50:15;;;;;;;3.80;0.75;;;8.40;99.90;;;;;;5042775;28;20036;-73
2023/10/15 01:52:44;;;;;;;2.83;0.55;;;8.40;99.90;;;;;;5056124;28;20040;-73
2023/10/15 01:55:12;;;;;;;2.60;0.70;;;8.30;99.90;;;;;;5070656;28;20057;-73
2023/10/15 01:57:39;;;;;;;4.75;1.25;;;8.20;99.90;;;;;;5036456;28;20128;-73
2023/10/15 02:00:13;;;;;;;4.95;2.45;;;8.30;99.90;;;;;;5071485;28;20039;-73
2023/10/15 02:02:40;;;;;;;4.38;0.80;;;8.20;99.90;;;;;;5062586;28;20497;-73
2023/10/15 02:05:16;;;;;;;5.07;1.05;;;8.00;99.90;;;;;;5040167;28;20035;-73
2023/10/15 02:07:43;;;;;;;3.38;1.67;;;7.90;99.90;;;;;;5070315;28;20048;-73
2023/10/15 02:10:12;;;;;;;5.18;0.90;;;7.90;99.90;;;;;;5036050;28;20558;-73
2023/10/15 02:12:37;;;;;;;4.78;0.93;;;7.90;99.90;;;;;;5035677;28;20073;-73
2023/10/15 02:15:14;;;;;;;3.53;0.80;;;7.90;99.90;;;;;;5052865;28;20033;-73
2023/10/15 02:17:43;;;;;;;4.65;0.80;;;8.00;99.90;;;;;;5046146;28;20112;-73
2023/10/15 02:20:12;;;;;;;4.72;0.90;;;7.90;99.90;;;;;;5087943;28;20127;-73
2023/10/15 02:22:38;;;;;;;3.55;1.02;;;7.80;99.90;;;;;;5051924;28;20040;-73
2023/10/15 02:25:04;;;;;;;5.10;1.00;;;7.90;99.90;;;;;;5068445;28;20041;-73
2023/10/15 02:27:34;;;;;;;4.15;0.85;;;8.00;99.90;;;;;;5047903;28;20098;-73
2023/10/15 02:30:00;;;;;;;3.15;1.00;;;7.90;99.90;;;;;;5055408;28;20618;-73
2023/10/15 02:34:52;;;;;;;3.90;1.17;;;7.90;99.90;;;;;;5071682;28;20041;-73
2023/10/15 02:37:27;;;;;;;3.22;0.82;;;7.90;99.90;;;;;;5080759;28;20040;-73
2023/10/15 02:39:55;;;;;;;6.03;1.10;;;7.80;99.90;;;;;;5070227;28;20040;-73
2023/10/15 02:42:31;;;;;;;8.27;1.00;;;7.80;99.90;;;;;;5070680;28;20518;-73
2023/10/15 02:45:00;;;;;;;4.53;0.73;;;7.70;99.90;;;;;;5082481;28;20473;-73
2023/10/15 02:47:31;;;;;;;4.93;0.90;;;7.70;99.90;;;;;;5068832;28;20099;-73
2023/10/15 02:50:00;;;;;;;5.00;0.95;;;7.70;99.90;;;;;;5057755;28;20457;-73
2023/10/15 02:52:35;;;;;;;7.75;1.10;;;7.80;99.90;;;;;;5054244;28;20048;-73
2023/10/15 02:55:06;;;;;;;3.22;0.68;;;7.70;99.90;;;;;;5070297;28;20400;-73
2023/10/15 02:57:39;;;;;;;5.15;0.88;;;7.70;99.90;;;;;;5086018;28;20135;-73
2023/10/15 03:00:28;;;;;;;3.85;0.80;;;7.80;99.90;;;;;;5070976;28;20389;-73
2023/10/15 03:02:57;;;;;;;2.28;0.95;;;7.80;99.90;;;;;;5051345;28;20397;-72
2023/10/15 03:05:30;;;;;;;2.97;0.70;;;7.70;99.90;;;;;;5053955;28;20442;-72
2023/10/15 03:07:56;;;;;;;4.65;0.70;;;7.90;99.90;;;;;;5070494;28;20507;-72
2023/10/15 03:10:22;;;;;;;4.03;0.65;;;8.00;99.90;;;;;;5087555;28;20086;-73
2023/10/15 03:12:48;;;;;;;4.55;0.80;;;7.90;99.90;;;;;;5052684;28;20036;-73
2023/10/15 03:15:14;;;;;;;2.20;0.55;;;7.80;99.90;;;;;;5068297;28;20550;-73
2023/10/15 03:17:43;;;;;;;4.03;0.50;;;7.80;99.90;;;;;;5071604;28;20043;-73
2023/10/15 03:22:42;;;;;;;2.45;0.55;;;7.90;99.90;;;;;;5071831;28;20481;-73
2023/10/15 03:25:13;;;;;;;2.65;0.60;;;7.80;99.90;;;;;;5051827;28;20094;-73
2023/10/15 03:27:48;;;;;;;4.00;0.70;;;7.80;99.90;;;;;;5039754;28;20524;-73
2023/10/15 03:30:14;;;;;;;4.65;0.65;;;7.70;99.90;;;;;;5052917;28;20033;-73
2023/10/15 03:32:44;;;;;;;2.63;0.70;;;7.70;99.90;;;;;;5054051;28;20075;-73
2023/10/15 03:35:16;;;;;;;2.47;0.70;;;7.60;99.90;;;;;;5051067;28;20087;-73
2023/10/15 03:37:45;;;;;;;3.75;0.50;;;7.60;99.90;;;;;;5054727;28;20036;-73
2023/10/15 03:40:29;;;;;;;7.50;1.13;;;7.60;99.90;;;;;;5052571;28;20052;-73
2023/10/15 03:43:00;;;;;;;5.03;0.80;;;7.50;99.90;;;;;;5071607;28;20392;-73
2023/10/15 03:45:27;;;;;;;2.70;0.73;;;7.50;99.90;;;;;;5070254;28;20548;-73
2023/10/15 03:47:54;;;;;;;2.70;1.15;;;7.50;99.90;;;;;;5056332;28;20036;-73
2023/10/15 03:50:20;;;;;;;6.28;0.88;;;7.40;99.90;;;;;;5057160;28;20037;-73
2023/10/15 03:52:45;;;;;;;3.15;0.80;;;7.40;99.90;;;;;;5057268;28;20036;-73
2023/10/15 03:55:11;;;;;;;4.18;0.70;;;7.40;99.90;;;;;;5074806;28;20106;-73
2023/10/15 03:57:37;;;;;;;3.40;0.60;;;7.40;99.90;;;;;;5054816;28;20073;-73
2023/10/15 04:00:16;;;;;;;3.10;0.63;;;7.40;99.90;;;;;;5057642;28;20040;-73
2023/10/15 04:05:28;;;;;;;4.35;0.60;;;7.50;99.90;;;;;;5071750;28;20045;-73
2023/10/15 04:07:53;;;;;;;4.82;0.60;;;7.50;99.90;;;;;;5071482;28;20405;-72
2023/10/15 04:10:33;;;;;;;4.00;0.68;;;7.60;99.90;;;;;;5074022;28;20039;-73
2023/10/15 04:13:00;;;;;;;2.70;0.55;;;7.70;99.90;;;;;;5072235;28;20037;-73
2023/10/15 04:15:25;;;;;;;1.95;0.43;;;7.70;99.90;;;;;;5054468;28;20037;-73
2023/10/15 04:17:51;;;;;;;2.90;0.50;;;7.70;99.90;;;;;;5051085;28;20089;-73
2023/10/15 04:20:35;;;;;;;1.83;0.60;;;7.90;99.90;;;;;;5056863;28;20499;-73
2023/10/15 04:23:01;;;;;;;3.53;0.60;;;7.90;99.90;;;;;;5054726;28;20041;-73
2023/10/15 04:25:36;;;;;;;2.33;0.98;;;7.80;99.90;;;;;;5090344;28;20037;-73
2023/10/15 04:28:10;;;;;;;3.83;0.57;;;7.70;99.90;;;;;;5089583;28;20054;-73
2023/10/15 04:30:39;;;;;;;3.05;0.70;;;7.60;99.90;;;;;;5090364;28;20036;-73
2023/10/15 04:33:13;;;;;;;1.95;0.55;;;7.60;99.90;;;;;;5053707;28;20450;-73
2023/10/15 04:35:40;;;;;;;3.22;0.70;;;7.60;99.90;;;;;;5063169;28;20048;-73
2023/10/15 04:38:09;;;;;;;2.10;0.50;;;7.60;99.90;;;;;;5070940;28;20112;-73
2023/10/15 04:40:59;;;;;;;4.32;0.70;;;7.60;99.90;;;;;;5070801;28;20119;-73
2023/10/15 04:43:25;;;;;;;3.22;0.50;;;7.60;99.90;;;;;;5060312;28;20119;-73
2023/10/15 04:45:55;;;;;;;2.28;0.70;;;7.60;99.90;;;;;;5074335;28;20043;-73
2023/10/15 04:48:30;;;;;;;4.95;0.60;;;7.60;99.90;;;;;;5072335;28;20508;-73
2023/10/15 04:51:04;;;;;;;3.70;0.82;;;7.60;99.90;;;;;;5061415;28;20038;-73
2023/10/15 04:53:30;;;;;;;2.75;0.55;;;7.60;99.90;;;;;;5074161;28;20396;-73
2023/10/15 04:55:58;;;;;;;4.15;0.82;;;7.60;99.90;;;;;;5071920;28;20133;-73
2023/10/15 04:58:29;;;;;;;2.05;0.60;;;7.60;99.90;;;;;;5072988;28;20047;-73
2023/10/15 05:00:54;;;;;;;2.90;0.60;;;7.60;99.90;;;;;;5053735;28;20032;-73
2023/10/15 05:03:21;;;;;;;2.63;0.50;;;7.60;99.90;;;;;;5073930;28;20098;-73
2023/10/15 05:05:46;;;;;;;2.28;0.52;;;7.70;99.90;;;;;;5072287;28;20045;-73
2023/10/15 05:08:13;;;;;;;3.00;0.60;;;7.70;99.90;;;;;;5090440;28;20516;-73
2023/10/15 05:10:44;;;;;;;3.85;0.75;;;7.80;99.90;;;;;;5071019;28;20040;-73
2023/10/15 05:13:13;;;;;;;3.83;0.70;;;7.80;99.90;;;;;;5090248;28;20086;-73
2023/10/15 05:15:42;;;;;;;1.25;0.50;;;7.80;99.90;;;;;;5071999;28;20055;-73
2023/10/15 05:18:08;;;;;;;3.72;0.73;;;7.80;99.90;;;;;;5073456;28;20043;-73
2023/10/15 05:20:34;;;;;;;3.40;0.60;;;7.90;99.90;;;;;;5087028;28;20115;-73
2023/10/15 05:22:59;;;;;;;3.33;0.45;;;7.90;99.90;;;;;;5072007;28;20033;-73
2023/10/15 05:25:25;;;;;;;1.73;0.50;;;7.80;99.90;;;;;;5072343;28;20400;-74
2023/10/15 05:27:50;;;;;;;2.05;0.50;;;7.80;99.90;;;;;;5072257;28;20072;-73
2023/10/15 05:30:16;;;;;;;2.97;0.68;;;7.80;99.90;;;;;;5071322;28;20041;-73
2023/10/15 05:32:43;;;;;;;3.30;0.60;;;7.80;99.90;;;;;;5053725;28;20078;-73
2023/10/15 05:35:09;;;;;;;3.38;0.60;;;7.70;99.90;;;;;;5072147;28;20119;-73
2023/10/15 05:37:42;;;;;;;2.83;0.50;;;7.70;99.90;;;;;;5055395;28;20065;-73
2023/10/15 05:40:08;;;;;;;1.92;0.40;;;7.60;99.90;;;;;;5071628;28;20033;-73
2023/10/15 05:42:35;;;;;;;4.82;0.65;;;7.60;99.90;;;;;;5086497;28;20125;-73
2023/10/15 05:45:00;;;;;;;4.60;0.75;;;7.60;99.90;;;;;;5083911;28;20033;-74
2023/10/15 05:47:28;;;;;;;5.75;0.90;;;7.50;99.90;;;;;;5036229;28;20399;-73
2023/10/15 05:49:54;;;;;;;1.17;0.52;;;7.50;99.90;;;;;;5039374;28;20441;-73
2023/10/15 05:52:20;;;;;;;3.22;0.95;;;7.50;99.90;;;;;;5051925;28;20067;-73
2023/10/15 05:54:47;;;;;;;2.72;0.50;;;7.50;99.90;;;;;;5072143;28;20496;-73
2023/10/15 05:57:13;;;;;;;3.53;0.70;;;7.50;99.90;;;;;;5070451;28;20459;-74
2023/10/15 05:59:39;;;;;;;2.25;0.63;;;7.40;99.90;;;;;;5054535;28;20076;-73
2023/10/15 06:02:04;;;;;;;4.13;0.60;;;7.30;99.90;;;;;;5068574;28;20064;-74
2023/10/15 06:04:30;;;;;;;4.35;0.73;;;7.30;99.90;;;;;;5053612;28;20497;-73
2023/10/15 06:06:57;;;;;;;3.25;0.60;;;7.30;99.90;;;;;;5071341;28;20036;-73
2023/10/15 06:09:23;;;;;;;4.70;0.80;;;7.30;99.90;;;;;;5064876;28;20409;-73
2023/10/15 06:11:50;;;;;;;4.07;0.60;;;7.30;99.90;;;;;;5061968;28;20531;-73
2023/10/15 06:14:15;;;;;;;2.92;0.65;;;7.30;99.90;;;;;;5053466;28;20131;-73
2023/10/15 06:16:41;;;;;;;4.93;0.75;;;7.30;99.90;;;;;;5054211;28;20115;-74
2023/10/15 06:19:09;;;;;;;3.15;0.70;;;7.30;99.90;;;;;;5054503;28;20546;-73
2023/10/15 06:21:35;;;;;;;4.93;0.70;;;7.30;99.90;;;;;;5035496;28;20062;-73
2023/10/15 06:24:01;;;;;;;5.65;0.70;;;7.30;99.90;;;;;;5049981;28;20131;-73
2023/10/15 06:26:28;;;;;;;7.30;0.80;;;7.40;99.90;;;;;;5054017;28;20085;-73
2023/10/15 06:28:53;;;;;;;5.93;0.77;;;7.40;99.90;;;;;;5055470;28;20047;-73
2023/10/15 06:31:19;;;;;;;2.47;0.65;;;7.40;99.90;;;;;;5047232;28;20037;-73
2023/10/15 06:33:44;;;;;;;2.45;0.60;;;7.40;99.90;;;;;;5068656;28;20127;-73
2023/10/15 06:36:10;;;;;;;4.95;0.93;;;7.40;99.90;;;;;;5048732;28;20079;-73
2023/10/15 06:38:36;;;;;;;3.60;0.70;;;7.40;99.90;;;;;;5043099;28;20037;-73
2023/10/15 06:41:01;;;;;;;3.90;0.68;;;7.40;99.90;;;;;;5056219;28;20093;-73
2023/10/15 06:43:28;;;;;;;5.38;0.80;;;7.50;99.90;;;;;;5049207;28;20037;-73
2023/10/15 06:45:53;;;;;;;3.60;0.60;;;7.50;99.90;;;;;;5054531;28;20044;-73
2023/10/15 06:48:22;;;;;;;4.32;0.80;;;7.50;99.90;;;;;;5054290;28;20036;-73
2023/10/15 06:50:48;;;;;;;6.13;0.90;;;7.50;99.90;;;;;;5051274;28;20661;-72
2023/10/15 06:53:14;;;;;;;7.53;0.80;;;7.50;99.90;;;;;;5057256;28;20075;-72
2023/10/15 06:55:42;;;;;;;5.20;0.70;;;7.50;99.90;;;;;;5050493;28;20084;-72
2023/10/15 06:58:10;;;;;;;5.03;0.80;;;7.60;99.90;;;;;;5052674;28;20162;-72
2023/10/15 07:00:36;;;;;;;3.20;0.63;;;7.60;99.90;;;;;;5050833;28;20032;-72
2023/10/15 07:03:02;;;;;;;3.65;0.70;;;7.60;99.90;;;;;;5052280;28;20127;-73
2023/10/15 07:05:28;;;;;;;4.05;0.70;;;7.60;99.90;;;;;;5057814;28;20172;-72
2023/10/15 07:07:56;;;;;;;5.95;0.60;;;7.80;99.90;;;;;;5050801;28;20392;-72
2023/10/15 07:10:22;;;;;;;3.28;0.60;;;7.80;99.90;;;;;;5050276;28;20032;-73
2023/10/15 07:12:52;;;;;;;3.22;0.60;;;7.80;99.90;;;;;;5053133;28;20028;-73
2023/10/15 07:15:20;;;;;;;2.80;0.80;;;7.80;99.90;;;;;;5053265;28;20036;-73
2023/10/15 07:17:46;;;;;;;3.60;0.70;;;7.70;99.90;;;;;;5048738;28;20039;-73
2023/10/15 07:20:18;;;;;;;1.63;0.60;;;7.80;99.90;;;;;;5045874;28;20043;-73
2023/10/15 07:22:46;;;;;;;4.28;0.60;;;7.80;99.90;;;;;;5051746;28;20493;-73
2023/10/15 07:25:13;;;;;;;3.42;0.60;;;7.70;99.90;;;;;;5060187;28;20044;-72
2023/10/15 07:27:41;;;;;;;1.52;0.50;;;7.60;99.90;;;;;;5076806;28;20123;-73
2023/10/15 07:30:12;;;;;;;5.03;0.65;;;7.50;99.90;;;;;;5055386;28;20044;-73
2023/10/15 07:32:39;;;;;;;2.45;0.60;;;7.60;99.90;;;;;;5053960;28;20068;-73
2023/10/15 07:35:06;;;;;;;3.72;0.95;;;7.70;99.90;;;;;;5055985;28;20039;-72
2023/10/15 07:37:34;;;;;;;3.30;0.63;;;7.70;99.90;;;;;;5066189;28;20123;-72
2023/10/15 07:40:05;;;;;;;3.20;0.50;;;7.70;99.90;;;;;;5060713;28;20044;-72
2023/10/15 07:42:32;;;;;;;2.70;0.40;;;7.80;99.90;;;;;;5074573;28;20040;-72
2023/10/15 07:44:59;;;;;;;2.67;0.50;;;7.80;99.90;;;;;;5048342;28;20071;-72
2023/10/15 07:47:28;;;;;;;2.95;0.50;;;7.80;99.90;;;;;;5047261;28;20040;-72
2023/10/15 07:49:53;;;;;;;3.30;0.52;;;7.90;99.90;;;;;;5072694;28;20044;-72
2023/10/15 07:52:19;;;;;;;2.45;0.57;;;7.80;99.90;;;;;;5072912;28;20545;-72
2023/10/15 07:54:45;;;;;;;4.32;0.40;;;7.90;99.90;;;;;;5056497;28;20044;-71
2023/10/15 07:57:12;;;;;;;2.45;0.60;;;7.80;99.90;;;;;;5056049;28;20501;-70
2023/10/15 07:59:37;;;;;;;3.65;0.63;;;7.70;99.90;;;;;;5071706;28;20044;-71
2023/10/15 08:02:03;;;;;;;3.67;0.70;;;7.80;99.90;;;;;;5055177;28;20129;-71
2023/10/15 08:04:29;;;;;;;2.47;0.60;;;7.80;99.90;;;;;;5072556;28;20097;-71
2023/10/15 08:06:55;;;;;;;4.18;0.60;;;7.80;99.90;;;;;;5072653;28;20033;-72
2023/10/15 08:09:21;;;;;;;2.65;0.40;;;7.80;99.90;;;;;;5065530;28;20043;-72
2023/10/15 08:11:47;;;;;;;3.88;0.52;;;7.80;99.90;;;;;;5069209;28;20036;-71
2023/10/15 08:14:13;;;;;;;2.42;0.50;;;7.70;99.90;;;;;;5073682;28;20408;-72
2023/10/15 08:16:38;;;;;;;5.00;0.60;;;7.90;99.90;;;;;;5065795;28;20530;-72
2023/10/15 08:19:04;;;;;;;5.63;1.02;;;7.90;99.90;;;;;;5056152;28;20041;-72
2023/10/15 08:21:30;;;;;;;4.72;1.02;;;7.90;99.90;;;;;;5069347;28;20033;-72
2023/10/15 08:23:56;;;;;;;2.45;0.50;;;7.80;99.90;;;;;;5053882;28;20042;-72
2023/10/15 08:26:21;;;;;;;2.90;0.80;;;7.80;99.90;;;;;;5069256;28;20123;-72
2023/10/15 08:28:48;;;;;;;6.20;0.73;;;7.90;99.90;;;;;;5056945;28;20091;-72
2023/10/15 08:31:14;;;;;;;5.53;1.02;;;7.90;99.90;;;;;;5067000;28;20052;-72
2023/10/15 08:33:40;;;;;;;7.57;1.02;;;8.00;99.90;;;;;;5071560;28;20454;-72
2023/10/15 08:36:07;;;;;;;3.60;0.60;;;7.90;99.90;;;;;;5064246;28;20040;-72
2023/10/15 08:38:34;;;;;;;2.83;0.50;;;8.10;99.90;;;;;;5054118;28;20028;-72
2023/10/15 08:41:08;;;;;;;3.83;0.70;;;8.30;99.90;;;;;;5056248;28;20493;-72
2023/10/15 08:43:34;;;;;;;3.13;0.65;;;8.20;99.90;;;;;;5053278;28;20036;-72
2023/10/15 08:46:01;;;;;;;4.40;0.77;;;8.30;99.90;;;;;;5045093;28;20083;-72
2023/10/15 08:48:28;;;;;;;3.63;0.85;;;8.20;99.90;;;;;;5053286;28;20041;-73
2023/10/15 08:50:57;;;;;;;3.45;1.00;;;8.20;99.90;;;;;;5056848;28;20083;-72
2023/10/15 08:53:25;;;;;;;4.30;0.60;;;8.30;99.90;;;;;;5072303;28;20044;-72
2023/10/15 08:55:57;;;;;;;6.13;0.73;;;8.30;99.90;;;;;;5071799;28;20056;-72
2023/10/15 08:58:25;;;;;;;2.55;0.77;;;8.30;99.90;;;;;;5067677;28;20124;-72
2023/10/15 09:00:52;;;;;;;4.15;0.63;;;8.40;99.90;;;;;;5068779;28;20119;-72
2023/10/15 09:03:19;;;;;;;3.70;0.60;;;8.40;99.90;;;;;;5051601;28;20429;-72
2023/10/15 09:05:44;;;;;;;3.50;0.65;;;8.30;99.90;;;;;;5077926;28;20071;-72
2023/10/15 09:08:13;;;;;;;6.75;1.00;;;8.30;99.90;;;;;;5054133;28;20071;-72
2023/10/15 09:10:40;;;;;;;4.05;0.70;;;8.40;99.90;;;;;;5058272;28;20417;-72
2023/10/15 09:13:14;;;;;;;7.15;0.85;;;8.50;99.90;;;;;;5054236;28;20116;-72
2023/10/15 09:15:45;;;;;;;3.22;0.80;;;8.50;99.90;;;;;;5042613;28;20374;-72
2023/10/15 09:18:11;;;;;;;4.57;0.68;;;8.70;99.90;;;;;;5070684;28;20033;-72
2023/10/15 09:20:40;;;;;;;3.22;0.70;;;8.80;99.90;;;;;;5064157;28;20496;-72
2023/10/15 09:23:05;;;;;;;9.30;1.40;;;9.00;99.90;;;;;;5055120;28;20081;-72
2023/10/15 09:25:31;;;;;;;4.57;0.82;;;9.10;99.90;;;;;;5055634;28;20041;-72
2023/10/15 09:27:58;;;;;;;7.38;0.93;;;9.20;99.90;;;;;;5048136;28;20040;-72
2023/10/15 09:30:24;;;;;;;3.80;0.60;;;9.40;99.90;;;;;;5054111;28;20473;-72
2023/10/15 09:32:50;;;;;;;6.00;0.85;;;9.40;99.90;;;;;;5072194;28;20043;-72
2023/10/15 09:35:17;;;;;;;3.05;0.80;;;9.40;99.90;;;;;;5065701;28;20039;-72
2023/10/15 09:37:44;;;;;;;4.78;0.98;;;9.40;99.90;;;;;;5063111;28;20041;-72
2023/10/15 09:40:18;;;;;;;4.30;1.05;;;9.50;99.90;;;;;;5066712;28;20433;-72
2023/10/15 09:42:46;;;;;;;7.18;1.08;;;9.60;99.90;;;;;;5063572;28;20485;-72
2023/10/15 09:45:18;;;;;;;2.72;0.80;;;9.70;99.90;;;;;;5063406;28;20032;-72
2023/10/15 09:47:52;;;;;;;6.10;1.10;;;9.80;99.90;;;;;;5051526;28;20042;-72
2023/10/15 09:50:25;;;;;;;6.20;1.00;;;9.90;99.90;;;;;;5055988;28;20505;-72
2023/10/15 09:53:00;;;;;;;4.28;0.75;;;9.90;99.90;;;;;;5064078;28;20076;-72
2023/10/15 09:55:28;;;;;;;6.80;0.77;;;10.00;99.90;;;;;;5064114;28;20056;-71
2023/10/15 09:57:55;;;;;;;6.57;1.00;;;10.00;99.90;;;;;;5071409;28;20047;-72
2023/10/15 10:00:37;;;;;;;2.90;1.00;;;10.00;99.90;;;;;;5056654;28;20037;-72
2023/10/15 10:03:40;;;;;;;7.45;0.82;;;10.00;99.90;;;;;;5042213;28;20029;-72
2023/10/15 10:06:18;;;;;;;3.75;0.82;;;9.90;99.90;;;;;;5068846;28;20072;-72
2023/10/15 10:09:21;;;;;;;5.18;0.90;;;9.90;99.90;;;;;;5053723;28;20390;-72
2023/10/15 10:11:59;;;;;;;7.30;0.90;;;9.90;99.90;;;;;;5071884;28;20052;-72
2023/10/15 10:14:55;;;;;;;7.43;1.50;;;9.90;99.90;;;;;;5052613;28;20044;-72
2023/10/15 10:17:22;;;;;;;5.82;1.15;;;10.00;99.90;;;;;;5041353;28;20038;-72
2023/10/15 10:19:52;;;;;;;6.05;0.95;;;10.00;99.90;;;;;;5044864;28;20041;-73
2023/10/15 10:22:24;;;;;;;5.32;0.98;;;10.00;99.90;;;;;;5071242;28;20124;-72
2023/10/15 10:24:50;;;;;;;5.40;0.90;;;10.00;99.90;;;;;;5055540;28;20460;-72
2023/10/15 10:27:17;;;;;;;7.35;1.10;;;10.10;99.90;;;;;;5071801;28;20123;-73
2023/10/15 10:29:49;;;;;;;3.97;0.90;;;10.10;99.90;;;;;;5055456;28;20084;-72
2023/10/15 10:32:15;;;;;;;8.80;1.00;;;10.10;99.90;;;;;;5074125;28;20047;-73
2023/10/15 10:34:41;;;;;;;6.38;1.20;;;10.10;99.90;;;;;;5053873;28;20462;-72
2023/10/15 10:37:23;;;;;;;4.05;0.82;;;10.00;99.90;;;;;;5057054;28;20033;-72
2023/10/15 10:39:49;;;;;;;3.10;0.70;;;9.80;99.90;;;;;;5056850;28;20469;-72
2023/10/15 10:42:23;;;;;;;6.05;0.88;;;9.90;99.90;;;;;;5037007;28;20489;-72
2023/10/15 10:44:49;;;;;;;1.55;0.60;;;9.90;99.90;;;;;;5055765;28;20051;-72
2023/10/15 10:47:19;;;;;;;4.57;0.90;;;10.00;99.90;;;;;;5069283;28;20036;-73
2023/10/15 10:49:55;;;;;;;5.10;0.70;;;10.10;99.90;;;;;;5071492;28;20044;-72
2023/10/15 10:52:33;;;;;;;5.53;0.90;;;10.10;99.90;;;;;;5051587;28;20033;-72
2023/10/15 10:55:29;;;;;;;6.13;1.17;;;10.10;99.90;;;;;;5087944;28;20055;-72
2023/10/15 10:57:54;;;;;;;2.05;0.57;;;10.10;99.90;;;;;;5069600;28;20049;-72
2023/10/15 11:00:20;;;;;;;5.55;1.17;;;10.10;99.90;;;;;;5087434;28;20088;-72
2023/10/15 11:02:47;;;;;;;1.92;0.50;;;10.20;99.90;;;;;;5060845;28;20497;-73
2023/10/15 11:05:13;;;;;;;5.38;0.90;;;10.20;99.90;;;;;;5071325;28;20496;-73
2023/10/15 11:07:40;;;;;;;4.55;1.20;;;10.20;99.90;;;;;;5071682;28;20066;-73
2023/10/15 11:10:06;;;;;;;4.30;0.60;;;10.20;99.90;;;;;;5068242;28;20036;-73
2023/10/15 11:12:32;;;;;;;2.50;0.50;;;10.40;99.90;;;;;;5068437;28;20542;-73
2023/10/15 11:14:58;;;;;;;3.90;0.63;;;10.40;99.90;;;;;;5070062;28;20032;-73
2023/10/15 11:17:24;;;;;;;2.83;0.85;;;10.50;99.90;;;;;;5059960;28;20089;-73
2023/10/15 11:19:50;;;;;;;4.00;0.65;;;10.60;99.90;;;;;;5066621;28;20119;-73
2023/10/15 11:22:15;;;;;;;3.03;0.60;;;10.70;99.90;;;;;;5070048;28;20036;-73
2023/10/15 11:24:43;;;;;;;6.18;0.90;;;10.60;99.90;;;;;;5069881;28;20033;-73
2023/10/15 11:27:12;;;;;;;2.17;0.52;;;10.60;99.90;;;;;;5072085;28;20203;-72
2023/10/15 11:29:38;;;;;;;4.30;0.70;;;10.50;99.90;;;;;;5048684;28;20633;-72
2023/10/15 11:32:06;;;;;;;2.97;0.73;;;10.50;99.90;;;;;;5051821;28;20032;-72
2023/10/15 11:34:33;;;;;;;5.10;0.90;;;10.40;99.90;;;;;;5054862;28;20132;-72
2023/10/15 11:37:01;;;;;;;2.95;0.50;;;10.30;99.90;;;;;;5056855;28;20490;-72
2023/10/15 11:39:37;;;;;;;5.50;1.60;;;10.20;99.90;;;;;;5053202;28;20049;-72
2023/10/15 11:42:04;;;;;;;1.33;0.73;;;10.30;99.90;;;;;;5054391;28;20032;-72
2023/10/15 11:44:33;;;;;;;1.63;0.45;;;10.30;99.90;;;;;;5046609;28;20041;-72
2023/10/15 11:47:12;;;;;;;3.95;0.60;;;10.40;99.90;;;;;;5060221;28;20052;-72
2023/10/15 11:49:38;;;;;;;4.18;0.93;;;10.40;99.90;;;;;;5052167;28;20048;-72
2023/10/15 11:52:11;;;;;;;4.40;0.98;;;10.50;99.90;;;;;;5064886;28;20116;-73
2023/10/15 11:54:43;;;;;;;6.47;0.98;;;10.50;99.90;;;;;;5068000;28;20169;-72
2023/10/15 11:57:16;;;;;;;4.53;0.75;;;10.50;99.90;;;;;;5069979;28;20056;-73
2023/10/15 11:59:42;;;;;;;2.28;0.65;;;10.50;99.90;;;;;;5044819;28;20455;-73
2023/10/15 12:02:11;;;;;;;5.28;0.82;;;10.50;99.90;;;;;;5068576;28;20050;-73
2023/10/15 12:04:38;;;;;;;7.22;1.20;;;10.70;99.90;;;;;;5053766;28;20446;-72
2023/10/15 12:07:04;;;;;;;4.85;1.20;;;10.70;99.90;;;;;;5054644;28;20102;-72
2023/10/15 12:09:32;;;;;;;6.43;1.30;;;10.70;99.90;;;;;;5061755;28;20048;-71
2023/10/15 12:11:59;;;;;;;9.13;1.05;;;10.50;99.90;;;;;;5072095;28;20044;-71
2023/10/15 12:14:25;;;;;;;4.03;0.70;;;10.40;99.90;;;;;;5085142;28;20115;-71
2023/10/15 12:16:50;;;;;;;7.28;0.98;;;10.30;99.90;;;;;;5062914;28;20493;-71
2023/10/15 12:19:17;;;;;;;7.47;0.90;;;10.10;99.90;;;;;;5054493;28;20063;-71
2023/10/15 12:21:43;;;;;;;9.55;1.92;;;10.00;99.90;;;;;;5072805;28;20515;-71
2023/10/15 12:24:09;;;;;;;4.40;0.90;;;10.00;99.90;;;;;;5069902;28;20501;-72
2023/10/15 12:26:35;;;;;;;5.68;0.80;;;9.90;99.90;;;;;;5056426;28;20040;-72
2023/10/15 12:29:05;;;;;;;6.90;0.90;;;9.80;99.90;;;;;;5071811;28;20035;-71
2023/10/15 12:31:32;;;;;;;7.07;1.05;;;9.80;99.90;;;;;;5073503;28;20079;-71
2023/10/15 12:34:00;;;;;;;3.53;0.55;;;9.80;99.90;;;;;;5056266;28;20118;-71
2023/10/15 12:36:28;;;;;;;6.35;0.95;;;9.80;99.90;;;;;;5056162;28;20044;-71
2023/10/15 12:38:54;;;;;;;6.28;0.90;;;9.80;99.90;;;;;;5056618;28;20041;-71
2023/10/15 12:41:21;;;;;;;4.18;1.00;;;9.90;99.90;;;;;;5065854;28;20048;-72
2023/10/15 12:43:48;;;;;;;6.13;1.20;;;9.90;99.90;;;;;;5068146;28;20565;-72
2023/10/15 12:46:13;;;;;;;7.40;1.05;;;9.80;99.90;;;;;;5037051;28;20080;-72
2023/10/15 12:48:39;;;;;;;7.68;1.20;;;9.80;99.90;;;;;;5056581;28;20075;-72
2023/10/15 12:51:04;;;;;;;4.63;0.90;;;9.90;99.90;;;;;;5063916;28;20040;-72
2023/10/15 12:53:31;;;;;;;6.70;0.90;;;9.90;99.90;;;;;;5055265;28;20032;-72
2023/10/15 12:55:57;;;;;;;7.32;1.83;;;9.90;99.90;;;;;;5072186;28;20066;-72
2023/10/15 12:58:23;;;;;;;5.10;1.00;;;9.80;99.90;;;;;;5055915;28;20485;-73
2023/10/15 13:00:52;;;;;;;9.10;1.17;;;9.80;99.90;;;;;;5055823;28;20564;-72
2023/10/15 13:03:18;;;;;;;6.80;1.45;;;9.70;99.90;;;;;;5068219;28;20032;-73
2023/10/15 13:05:45;;;;;;;7.07;1.00;;;9.70;99.90;;;;;;5071537;28;20043;-72
2023/10/15 13:08:10;;;;;;;4.72;0.82;;;9.70;99.90;;;;;;5061255;28;20036;-73
2023/10/15 13:10:37;;;;;;;4.72;0.95;;;9.70;99.90;;;;;;5071371;28;20040;-73
2023/10/15 13:13:03;;;;;;;4.18;0.77;;;9.70;99.90;;;;;;5053448;28;20028;-73
2023/10/15 13:15:29;;;;;;;5.55;0.88;;;9.80;99.90;;;;;;5052771;28;20411;-73
2023/10/15 13:17:54;;;;;;;4.07;0.93;;;9.80;99.90;;;;;;5086480;28;20098;-73